Palace, Missouri
Current Conditions -  °F | °C
As of 10:13 PM on Monday 22 Dec 2014 (Local Time) from KTBN Reporting Station
Overcast Overcast  
Wind Chill: 43°   Ceiling: 2300
Heat Index: 46°   Visibility: 10mi
Dew Point: 46°   Wind: 7mph
Humidity: 100%   Direction: 260°W
Pressure: 29.56"   Gusts: NA
Location:  37.492°N, 92.1844°W
Report Text: KTBN 230413Z AUTO 26006KT 10SM SCT014 BKN023 OVC039 08/08 A2956 RMK AO2 CIG 014V023
Loading
Personal Weather Stations






























Interactive Weather Map New forecast layout! Learn more

10-Day Weather Forecast

Advertisements
Track Severe Weather on mobile